Time,TemperatureF,DewpointF,PressureIn,WindDirection,WindDirectionDegrees,WindSpeedMPH,WindSpeedGustMPH,Humidity,HourlyPrecipIn,Conditions,Clouds,dailyrainin,SolarRadiationWatts/m^2,SoftwareType,DateUTC
2013-02-16 03:00:00,21.0,18.0,-100.00,WSW,247,1.0,-999.0,89,-99.99,,,-99.99,0.000000,,2013-02-16 08:00:00,
2013-02-16 03:42:00,21.0,18.0,-100.00,WSW,247,1.0,-999.0,89,-99.99,,,-99.99,0.000000,,2013-02-16 08:42:00,
2013-02-16 03:52:00,21.0,18.0,-100.00,WSW,247,1.0,-999.0,89,-99.99,,,-99.99,0.000000,,2013-02-16 08:52:00,
2013-02-16 06:00:00,19.0,17.0,-100.00,NW,315,2.0,-999.0,90,-99.99,,,-99.99,0.000000,,2013-02-16 11:00:00,
2013-02-16 06:42:00,19.0,17.0,-100.00,NW,315,2.0,-999.0,90,-99.99,,,-99.99,0.000000,,2013-02-16 11:42:00,
2013-02-16 06:52:00,19.0,17.0,-100.00,NW,315,2.0,-999.0,90,-99.99,,,-99.99,0.000000,,2013-02-16 11:52:00,
2013-02-16 09:00:00,18.0,13.0,-100.00,West,270,5.0,-999.0,80,-99.99,,,-99.99,62.639999,,2013-02-16 14:00:00,
2013-02-16 09:42:00,18.0,13.0,-100.00,West,270,5.0,-999.0,80,-99.99,,,-99.99,62.639999,,2013-02-16 14:42:00,
2013-02-16 09:52:00,18.0,13.0,-100.00,West,270,5.0,-999.0,80,-99.99,,,-99.99,62.639999,,2013-02-16 14:52:00,
2013-02-16 12:00:00,18.0,10.0,-100.00,NW,315,9.0,-999.0,71,-99.99,,,-99.99,325.959991,,2013-02-16 17:00:00,
2013-02-16 12:42:00,18.0,10.0,-100.00,NW,315,9.0,-999.0,71,-99.99,,,-99.99,325.959991,,2013-02-16 17:42:00,
2013-02-16 12:52:00,18.0,10.0,-100.00,NW,315,9.0,-999.0,71,-99.99,,,-99.99,325.959991,,2013-02-16 17:52:00,
2013-02-16 15:00:00,17.0,8.0,-100.00,WNW,292,9.0,-999.0,67,-99.99,,,-99.99,343.359985,,2013-02-16 20:00:00,
2013-02-16 15:42:00,17.0,8.0,-100.00,WNW,292,9.0,-999.0,67,-99.99,,,-99.99,343.359985,,2013-02-16 20:42:00,
2013-02-16 15:52:00,17.0,8.0,-100.00,WNW,292,9.0,-999.0,67,-99.99,,,-99.99,343.359985,,2013-02-16 20:52:00,
2013-02-16 18:00:00,14.0,7.0,-100.00,WNW,292,5.0,-999.0,71,-99.99,,,-99.99,25.520000,,2013-02-16 23:00:00,
2013-02-16 18:42:00,14.0,7.0,-100.00,WNW,292,5.0,-999.0,71,-99.99,,,-99.99,25.520000,,2013-02-16 23:42:00,
2013-02-16 18:52:00,14.0,7.0,-100.00,WNW,292,5.0,-999.0,71,-99.99,,,-99.99,25.520000,,2013-02-16 23:52:00,
2013-02-16 21:00:00,10.0,7.0,-100.00,WSW,247,2.0,-999.0,85,-99.99,,,-99.99,0.000000,,2013-02-17 02:00:00,
2013-02-16 21:42:00,10.0,7.0,-100.00,WSW,247,2.0,-999.0,85,-99.99,,,-99.99,0.000000,,2013-02-17 02:42:00,
2013-02-16 21:52:00,10.0,7.0,-100.00,WSW,247,2.0,-999.0,85,-99.99,,,-99.99,0.000000,,2013-02-17 02:52:00,